sensor_id;sensor_type;location;lat;lon;timestamp;pressure;altitude;pressure_sealevel;temperature;humidity
75604;BME280;64187;51.010;13.792;2023-05-29T00:00:07;100556.25;;;11.42;72.36
75604;BME280;64187;51.010;13.792;2023-05-29T00:05:11;100554.63;;;11.01;73.39
75604;BME280;64187;51.010;13.792;2023-05-29T00:10:11;100557.53;;;10.71;74.41
75604;BME280;64187;51.010;13.792;2023-05-29T00:15:10;100557.63;;;10.64;74.90
75604;BME280;64187;51.010;13.792;2023-05-29T00:20:11;100555.25;;;10.91;73.42
75604;BME280;64187;51.010;13.792;2023-05-29T00:25:14;100553.97;;;10.70;73.81
75604;BME280;64187;51.010;13.792;2023-05-29T00:30:13;100546.91;;;10.57;73.93
75604;BME280;64187;51.010;13.792;2023-05-29T00:35:12;100544.44;;;10.68;73.59
75604;BME280;64187;51.010;13.792;2023-05-29T00:40:11;100545.75;;;10.30;74.96
75604;BME280;64187;51.010;13.792;2023-05-29T00:45:10;100539.13;;;10.02;76.37
75604;BME280;64187;51.010;13.792;2023-05-29T00:50:12;100542.28;;;9.99;76.18
75604;BME280;64187;51.010;13.792;2023-05-29T00:55:13;100528.44;;;10.31;74.78
75604;BME280;64187;51.010;13.792;2023-05-29T01:00:13;100535.41;;;11.03;71.63
75604;BME280;64187;51.010;13.792;2023-05-29T01:05:15;100537.88;;;10.40;73.90
75604;BME280;64187;51.010;13.792;2023-05-29T01:10:14;100538.97;;;9.85;76.00
75604;BME280;64187;51.010;13.792;2023-05-29T01:25:50;100539.44;;;9.82;75.17
75604;BME280;64187;51.010;13.792;2023-05-29T01:30:57;100535.78;;;9.88;74.44
75604;BME280;64187;51.010;13.792;2023-05-29T01:35:56;100546.91;;;9.57;75.28
75604;BME280;64187;51.010;13.792;2023-05-29T01:40:55;100544.81;;;9.40;76.21
75604;BME280;64187;51.010;13.792;2023-05-29T01:45:54;100541.66;;;9.43;75.93
75604;BME280;64187;51.010;13.792;2023-05-29T01:50:55;100544.38;;;9.43;75.50
75604;BME280;64187;51.010;13.792;2023-05-29T01:55:56;100548.13;;;9.12;76.83
75604;BME280;64187;51.010;13.792;2023-05-29T02:00:56;100543.31;;;8.96;77.24
75604;BME280;64187;51.010;13.792;2023-05-29T02:05:57;100541.78;;;9.37;75.38
75604;BME280;64187;51.010;13.792;2023-05-29T02:10:56;100547.38;;;8.87;76.67
75604;BME280;64187;51.010;13.792;2023-05-29T02:15:55;100553.97;;;8.91;76.86
75604;BME280;64187;51.010;13.792;2023-05-29T02:20:55;100554.56;;;8.93;76.54
75604;BME280;64187;51.010;13.792;2023-05-29T02:25:54;100555.84;;;8.53;77.65
75604;BME280;64187;51.010;13.792;2023-05-29T02:30:53;100555.31;;;8.63;77.40
75604;BME280;64187;51.010;13.792;2023-05-29T02:35:53;100557.72;;;8.53;77.59
75604;BME280;64187;51.010;13.792;2023-05-29T02:40:52;100561.16;;;8.60;77.66
75604;BME280;64187;51.010;13.792;2023-05-29T02:45:51;100567.50;;;8.22;78.72
75604;BME280;64187;51.010;13.792;2023-05-29T02:50:50;100571.72;;;8.36;77.85
75604;BME280;64187;51.010;13.792;2023-05-29T02:55:50;100581.81;;;7.97;79.34
75604;BME280;64187;51.010;13.792;2023-05-29T03:00:49;100578.44;;;8.02;79.35
75604;BME280;64187;51.010;13.792;2023-05-29T03:05:49;100591.72;;;8.04;78.99
75604;BME280;64187;51.010;13.792;2023-05-29T03:10:47;100599.78;;;8.04;79.13
75604;BME280;64187;51.010;13.792;2023-05-29T03:15:46;100598.88;;;8.16;79.09
75604;BME280;64187;51.010;13.792;2023-05-29T03:20:47;100611.72;;;7.89;79.79
75604;BME280;64187;51.010;13.792;2023-05-29T03:25:48;100615.06;;;8.67;76.21
75604;BME280;64187;51.010;13.792;2023-05-29T03:30:48;100605.66;;;8.26;78.38
75604;BME280;64187;51.010;13.792;2023-05-29T03:35:50;100608.03;;;8.40;77.93
75604;BME280;64187;51.010;13.792;2023-05-29T03:40:50;100603.31;;;8.29;78.53
75604;BME280;64187;51.010;13.792;2023-05-29T03:45:49;100606.59;;;8.63;77.50
75604;BME280;64187;51.010;13.792;2023-05-29T03:50:49;100617.53;;;8.50;78.12
75604;BME280;64187;51.010;13.792;2023-05-29T03:55:54;100621.41;;;8.54;78.23
75604;BME280;64187;51.010;13.792;2023-05-29T04:00:54;100628.06;;;9.13;75.62
75604;BME280;64187;51.010;13.792;2023-05-29T04:05:53;100629.78;;;9.26;74.96
75604;BME280;64187;51.010;13.792;2023-05-29T04:10:52;100638.56;;;9.03;76.26
75604;BME280;64187;51.010;13.792;2023-05-29T04:15:53;100642.69;;;9.24;75.95
75604;BME280;64187;51.010;13.792;2023-05-29T04:20:53;100642.03;;;9.10;76.75
75604;BME280;64187;51.010;13.792;2023-05-29T04:25:53;100644.44;;;9.37;76.51
75604;BME280;64187;51.010;13.792;2023-05-29T04:30:57;100649.63;;;9.68;75.37
75604;BME280;64187;51.010;13.792;2023-05-29T04:35:56;100653.22;;;9.81;75.09
75604;BME280;64187;51.010;13.792;2023-05-29T04:40:56;100659.03;;;9.96;74.79
75604;BME280;64187;51.010;13.792;2023-05-29T04:46:00;100663.09;;;10.59;70.26
75604;BME280;64187;51.010;13.792;2023-05-29T04:51:04;100658.88;;;10.98;67.95
75604;BME280;64187;51.010;13.792;2023-05-29T04:56:03;100659.72;;;11.39;67.50
75604;BME280;64187;51.010;13.792;2023-05-29T05:01:03;100656.28;;;11.84;66.47
75604;BME280;64187;51.010;13.792;2023-05-29T05:06:03;100656.44;;;11.78;65.81
75604;BME280;64187;51.010;13.792;2023-05-29T05:11:05;100656.75;;;12.56;63.25
75604;BME280;64187;51.010;13.792;2023-05-29T05:16:05;100654.03;;;12.73;63.44
75604;BME280;64187;51.010;13.792;2023-05-29T05:21:08;100657.66;;;13.17;61.33
75604;BME280;64187;51.010;13.792;2023-05-29T05:26:08;100654.59;;;13.13;61.95
75604;BME280;64187;51.010;13.792;2023-05-29T05:31:07;100659.09;;;13.91;58.74
75604;BME280;64187;51.010;13.792;2023-05-29T05:36:07;100664.06;;;13.72;59.41
75604;BME280;64187;51.010;13.792;2023-05-29T05:41:08;100665.19;;;13.76;59.29
75604;BME280;64187;51.010;13.792;2023-05-29T05:46:07;100668.78;;;14.36;58.16
75604;BME280;64187;51.010;13.792;2023-05-29T05:51:08;100665.25;;;14.68;56.95
75604;BME280;64187;51.010;13.792;2023-05-29T05:56:09;100669.94;;;14.72;56.60
75604;BME280;64187;51.010;13.792;2023-05-29T06:01:08;100660.16;;;14.76;56.54
75604;BME280;64187;51.010;13.792;2023-05-29T06:06:07;100659.94;;;15.31;54.82
75604;BME280;64187;51.010;13.792;2023-05-29T06:11:10;100660.25;;;15.39;54.73
75604;BME280;64187;51.010;13.792;2023-05-29T06:16:11;100664.38;;;15.47;55.06
75604;BME280;64187;51.010;13.792;2023-05-29T06:21:12;100667.31;;;16.03;53.35
75604;BME280;64187;51.010;13.792;2023-05-29T06:26:18;100671.44;;;16.21;52.50
75604;BME280;64187;51.010;13.792;2023-05-29T06:31:19;100676.09;;;16.77;51.58
75604;BME280;64187;51.010;13.792;2023-05-29T06:36:18;100680.47;;;16.68;51.91
75604;BME280;64187;51.010;13.792;2023-05-29T06:41:20;100676.63;;;17.05;50.89
75604;BME280;64187;51.010;13.792;2023-05-29T06:46:20;100675.91;;;17.54;49.99
75604;BME280;64187;51.010;13.792;2023-05-29T06:51:19;100683.56;;;17.62;48.59
75604;BME280;64187;51.010;13.792;2023-05-29T06:56:18;100687.34;;;17.76;49.08
75604;BME280;64187;51.010;13.792;2023-05-29T07:01:17;100684.72;;;18.05;47.75
75604;BME280;64187;51.010;13.792;2023-05-29T07:06:36;100692.94;;;18.45;47.36
75604;BME280;64187;51.010;13.792;2023-05-29T07:11:38;100697.81;;;18.53;47.67
75604;BME280;64187;51.010;13.792;2023-05-29T07:16:37;100693.03;;;19.03;45.88
75604;BME280;64187;51.010;13.792;2023-05-29T07:21:38;100696.91;;;19.50;54.16
75604;BME280;64187;51.010;13.792;2023-05-29T07:26:37;100696.25;;;19.58;47.38
75604;BME280;64187;51.010;13.792;2023-05-29T07:31:36;100690.69;;;20.07;51.99
75604;BME280;64187;51.010;13.792;2023-05-29T07:36:56;100692.91;;;20.05;48.07
75604;BME280;64187;51.010;13.792;2023-05-29T07:41:56;100697.44;;;20.14;46.98
75604;BME280;64187;51.010;13.792;2023-05-29T07:46:55;100698.22;;;20.20;45.96
75604;BME280;64187;51.010;13.792;2023-05-29T07:52:03;100698.91;;;20.44;48.70
75604;BME280;64187;51.010;13.792;2023-05-29T07:57:03;100702.19;;;20.47;44.61
75604;BME280;64187;51.010;13.792;2023-05-29T08:02:03;100707.63;;;20.33;44.07
75604;BME280;64187;51.010;13.792;2023-05-29T08:07:17;100699.94;;;20.49;44.45
75604;BME280;64187;51.010;13.792;2023-05-29T08:12:16;100714.00;;;20.66;41.95
75604;BME280;64187;51.010;13.792;2023-05-29T08:17:15;100710.22;;;20.62;42.62
75604;BME280;64187;51.010;13.792;2023-05-29T08:22:16;100705.44;;;20.49;42.79
75604;BME280;64187;51.010;13.792;2023-05-29T08:27:15;100707.59;;;20.52;41.75
75604;BME280;64187;51.010;13.792;2023-05-29T08:32:14;100699.59;;;20.36;40.22
75604;BME280;64187;51.010;13.792;2023-05-29T08:37:13;100700.91;;;20.39;41.82
75604;BME280;64187;51.010;13.792;2023-05-29T08:42:15;100681.66;;;20.91;41.01
75604;BME280;64187;51.010;13.792;2023-05-29T08:47:17;100682.72;;;21.08;39.69
75604;BME280;64187;51.010;13.792;2023-05-29T08:52:19;100682.50;;;21.05;39.03
75604;BME280;64187;51.010;13.792;2023-05-29T08:57:19;100685.38;;;21.14;40.17
75604;BME280;64187;51.010;13.792;2023-05-29T09:02:19;100684.56;;;21.68;37.20
75604;BME280;64187;51.010;13.792;2023-05-29T09:07:19;100680.72;;;21.69;36.64
75604;BME280;64187;51.010;13.792;2023-05-29T09:12:17;100684.59;;;21.41;37.03
75604;BME280;64187;51.010;13.792;2023-05-29T09:17:17;100678.25;;;21.82;36.64
75604;BME280;64187;51.010;13.792;2023-05-29T09:22:15;100682.00;;;21.86;37.23
75604;BME280;64187;51.010;13.792;2023-05-29T09:27:15;100681.34;;;22.03;35.12
75604;BME280;64187;51.010;13.792;2023-05-29T09:32:18;100675.22;;;22.42;35.38
75604;BME280;64187;51.010;13.792;2023-05-29T09:37:18;100684.06;;;22.17;35.20
75604;BME280;64187;51.010;13.792;2023-05-29T09:42:20;100691.50;;;21.80;34.12
75604;BME280;64187;51.010;13.792;2023-05-29T09:47:23;100681.22;;;22.22;33.63
75604;BME280;64187;51.010;13.792;2023-05-29T09:52:22;100669.00;;;22.36;33.10
75604;BME280;64187;51.010;13.792;2023-05-29T09:57:21;100668.94;;;22.28;35.58
75604;BME280;64187;51.010;13.792;2023-05-29T10:02:22;100674.06;;;22.66;31.86
75604;BME280;64187;51.010;13.792;2023-05-29T10:07:29;100668.31;;;22.31;34.34
75604;BME280;64187;51.010;13.792;2023-05-29T10:12:44;100671.06;;;21.94;36.03
75604;BME280;64187;51.010;13.792;2023-05-29T10:17:50;100669.56;;;22.47;33.87
75604;BME280;64187;51.010;13.792;2023-05-29T10:22:52;100676.16;;;23.14;33.28
75604;BME280;64187;51.010;13.792;2023-05-29T10:27:54;100671.63;;;22.64;32.61
75604;BME280;64187;51.010;13.792;2023-05-29T10:38:18;100666.50;;;23.03;31.76
75604;BME280;64187;51.010;13.792;2023-05-29T10:43:34;100666.06;;;23.09;33.83
75604;BME280;64187;51.010;13.792;2023-05-29T10:48:37;100674.41;;;22.64;33.15
75604;BME280;64187;51.010;13.792;2023-05-29T10:53:36;100661.41;;;23.18;30.71
75604;BME280;64187;51.010;13.792;2023-05-29T10:58:39;100663.88;;;24.03;31.69
75604;BME280;64187;51.010;13.792;2023-05-29T11:03:39;100646.97;;;23.88;30.19
75604;BME280;64187;51.010;13.792;2023-05-29T11:08:43;100658.34;;;23.37;33.59
75604;BME280;64187;51.010;13.792;2023-05-29T11:13:53;100651.84;;;22.93;33.86
75604;BME280;64187;51.010;13.792;2023-05-29T11:18:52;100648.03;;;23.69;31.07
75604;BME280;64187;51.010;13.792;2023-05-29T11:23:52;100652.16;;;24.06;32.29
75604;BME280;64187;51.010;13.792;2023-05-29T11:28:57;100641.91;;;24.07;30.40
75604;BME280;64187;51.010;13.792;2023-05-29T11:33:59;100637.19;;;23.24;33.82
75604;BME280;64187;51.010;13.792;2023-05-29T11:38:59;100638.97;;;23.20;30.50
75604;BME280;64187;51.010;13.792;2023-05-29T11:43:59;100642.53;;;22.89;31.12
75604;BME280;64187;51.010;13.792;2023-05-29T11:49:00;100639.59;;;23.17;30.87
75604;BME280;64187;51.010;13.792;2023-05-29T11:54:00;100632.31;;;23.96;29.64
75604;BME280;64187;51.010;13.792;2023-05-29T11:58:59;100630.00;;;24.41;27.93
75604;BME280;64187;51.010;13.792;2023-05-29T12:03:59;100619.47;;;24.08;29.36
75604;BME280;64187;51.010;13.792;2023-05-29T12:08:58;100631.97;;;23.80;29.75
75604;BME280;64187;51.010;13.792;2023-05-29T12:14:00;100630.84;;;23.81;29.59
75604;BME280;64187;51.010;13.792;2023-05-29T12:18:59;100615.53;;;24.36;28.27
75604;BME280;64187;51.010;13.792;2023-05-29T12:23:59;100615.66;;;24.65;28.14
75604;BME280;64187;51.010;13.792;2023-05-29T12:29:04;100625.44;;;25.01;27.91
75604;BME280;64187;51.010;13.792;2023-05-29T12:34:10;100616.34;;;24.54;28.38
75604;BME280;64187;51.010;13.792;2023-05-29T12:39:10;100607.75;;;24.12;29.58
75604;BME280;64187;51.010;13.792;2023-05-29T12:44:09;100605.00;;;24.03;29.47
75604;BME280;64187;51.010;13.792;2023-05-29T12:54:14;100599.66;;;24.80;28.18
75604;BME280;64187;51.010;13.792;2023-05-29T12:59:14;100598.28;;;24.95;27.50
75604;BME280;64187;51.010;13.792;2023-05-29T13:04:17;100592.28;;;24.92;27.68
75604;BME280;64187;51.010;13.792;2023-05-29T13:09:15;100593.69;;;24.99;28.86
75604;BME280;64187;51.010;13.792;2023-05-29T13:14:14;100589.38;;;24.80;28.08
75604;BME280;64187;51.010;13.792;2023-05-29T13:19:13;100582.97;;;24.97;27.88
75604;BME280;64187;51.010;13.792;2023-05-29T13:24:12;100575.41;;;25.06;28.01
75604;BME280;64187;51.010;13.792;2023-05-29T13:29:12;100581.56;;;24.82;28.67
75604;BME280;64187;51.010;13.792;2023-05-29T13:34:11;100577.09;;;24.52;28.93
75604;BME280;64187;51.010;13.792;2023-05-29T13:39:10;100574.66;;;24.41;29.55
75604;BME280;64187;51.010;13.792;2023-05-29T13:44:09;100572.31;;;25.08;28.62
75604;BME280;64187;51.010;13.792;2023-05-29T13:49:08;100571.66;;;24.73;28.58
75604;BME280;64187;51.010;13.792;2023-05-29T13:54:07;100575.63;;;24.37;29.07
75604;BME280;64187;51.010;13.792;2023-05-29T13:59:05;100571.63;;;24.25;28.94
75604;BME280;64187;51.010;13.792;2023-05-29T14:04:04;100570.47;;;24.26;30.07
75604;BME280;64187;51.010;13.792;2023-05-29T14:09:04;100561.47;;;24.38;29.71
75604;BME280;64187;51.010;13.792;2023-05-29T14:14:03;100564.97;;;24.00;31.03
75604;BME280;64187;51.010;13.792;2023-05-29T14:19:02;100553.75;;;23.97;29.93
75604;BME280;64187;51.010;13.792;2023-05-29T14:24:01;100547.06;;;24.15;30.97
75604;BME280;64187;51.010;13.792;2023-05-29T14:29:00;100561.97;;;24.32;31.19
75604;BME280;64187;51.010;13.792;2023-05-29T14:34:11;100554.88;;;24.04;31.61
75604;BME280;64187;51.010;13.792;2023-05-29T14:39:11;100574.06;;;24.10;31.10
75604;BME280;64187;51.010;13.792;2023-05-29T14:44:11;100563.50;;;23.77;31.33
75604;BME280;64187;51.010;13.792;2023-05-29T14:49:11;100566.72;;;23.61;31.43
75604;BME280;64187;51.010;13.792;2023-05-29T14:54:10;100557.47;;;23.66;31.43
75604;BME280;64187;51.010;13.792;2023-05-29T14:59:10;100553.22;;;23.60;31.58
75604;BME280;64187;51.010;13.792;2023-05-29T15:04:09;100554.22;;;23.64;31.49
75604;BME280;64187;51.010;13.792;2023-05-29T15:09:08;100553.56;;;23.67;31.14
75604;BME280;64187;51.010;13.792;2023-05-29T15:14:07;100552.59;;;23.63;31.40
75604;BME280;64187;51.010;13.792;2023-05-29T15:19:06;100547.25;;;23.58;31.84
75604;BME280;64187;51.010;13.792;2023-05-29T15:24:05;100551.09;;;24.26;30.08
75604;BME280;64187;51.010;13.792;2023-05-29T15:29:04;100547.06;;;24.71;29.73
75604;BME280;64187;51.010;13.792;2023-05-29T15:34:03;100543.44;;;24.79;29.50
75604;BME280;64187;51.010;13.792;2023-05-29T15:39:02;100537.00;;;24.96;29.08
75604;BME280;64187;51.010;13.792;2023-05-29T15:44:01;100544.66;;;25.29;28.77
75604;BME280;64187;51.010;13.792;2023-05-29T15:49:00;100532.84;;;25.20;28.91
75604;BME280;64187;51.010;13.792;2023-05-29T15:53:59;100538.19;;;25.16;29.11
75604;BME280;64187;51.010;13.792;2023-05-29T15:58:58;100546.78;;;25.02;31.64
75604;BME280;64187;51.010;13.792;2023-05-29T16:03:57;100534.97;;;24.46;32.31
75604;BME280;64187;51.010;13.792;2023-05-29T16:08:56;100537.00;;;24.96;30.85
75604;BME280;64187;51.010;13.792;2023-05-29T16:13:55;100539.31;;;24.94;30.13
75604;BME280;64187;51.010;13.792;2023-05-29T16:19:00;100529.16;;;24.68;29.96
75604;BME280;64187;51.010;13.792;2023-05-29T16:24:06;100536.81;;;25.31;29.74
75604;BME280;64187;51.010;13.792;2023-05-29T16:29:05;100532.78;;;25.28;29.15
75604;BME280;64187;51.010;13.792;2023-05-29T16:34:04;100547.25;;;25.76;29.08
75604;BME280;64187;51.010;13.792;2023-05-29T16:39:03;100556.19;;;26.48;27.78
75604;BME280;64187;51.010;13.792;2023-05-29T16:44:02;100551.31;;;25.99;28.41
75604;BME280;64187;51.010;13.792;2023-05-29T16:49:01;100547.25;;;26.76;27.53
75604;BME280;64187;51.010;13.792;2023-05-29T16:54:00;100543.69;;;28.37;25.15
75604;BME280;64187;51.010;13.792;2023-05-29T16:58:59;100554.44;;;29.89;23.04
75604;BME280;64187;51.010;13.792;2023-05-29T17:03:59;100552.22;;;30.83;22.65
75604;BME280;64187;51.010;13.792;2023-05-29T17:08:58;100552.78;;;31.45;22.08
75604;BME280;64187;51.010;13.792;2023-05-29T17:13:56;100550.25;;;31.10;21.54
75604;BME280;64187;51.010;13.792;2023-05-29T17:18:55;100556.88;;;30.52;22.49
75604;BME280;64187;51.010;13.792;2023-05-29T17:23:54;100563.06;;;28.46;24.67
75604;BME280;64187;51.010;13.792;2023-05-29T17:28:53;100564.66;;;25.85;28.72
75604;BME280;64187;51.010;13.792;2023-05-29T17:33:52;100563.88;;;24.66;30.51
75604;BME280;64187;51.010;13.792;2023-05-29T17:38:51;100563.97;;;24.22;31.40
75604;BME280;64187;51.010;13.792;2023-05-29T17:43:50;100557.50;;;23.83;31.72
75604;BME280;64187;51.010;13.792;2023-05-29T17:48:50;100569.34;;;23.58;31.88
75604;BME280;64187;51.010;13.792;2023-05-29T17:53:49;100578.72;;;23.39;32.61
75604;BME280;64187;51.010;13.792;2023-05-29T17:58:48;100576.44;;;22.84;33.34
75604;BME280;64187;51.010;13.792;2023-05-29T18:03:48;100580.97;;;22.80;34.12
75604;BME280;64187;51.010;13.792;2023-05-29T18:08:49;100584.22;;;22.82;33.70
75604;BME280;64187;51.010;13.792;2023-05-29T18:13:48;100588.38;;;22.40;34.88
75604;BME280;64187;51.010;13.792;2023-05-29T18:18:47;100596.44;;;22.13;35.58
75604;BME280;64187;51.010;13.792;2023-05-29T18:23:46;100589.25;;;22.04;34.59
75604;BME280;64187;51.010;13.792;2023-05-29T18:28:48;100600.06;;;21.64;36.57
75604;BME280;64187;51.010;13.792;2023-05-29T18:33:47;100602.78;;;21.55;36.48
75604;BME280;64187;51.010;13.792;2023-05-29T18:38:47;100609.22;;;21.37;36.43
75604;BME280;64187;51.010;13.792;2023-05-29T18:43:50;100604.63;;;21.32;36.46
75604;BME280;64187;51.010;13.792;2023-05-29T18:48:50;100610.34;;;21.22;36.86
75604;BME280;64187;51.010;13.792;2023-05-29T18:53:49;100620.53;;;21.07;37.28
75604;BME280;64187;51.010;13.792;2023-05-29T18:58:48;100626.63;;;20.91;38.00
75604;BME280;64187;51.010;13.792;2023-05-29T19:03:47;100630.47;;;20.76;38.22
75604;BME280;64187;51.010;13.792;2023-05-29T19:08:46;100636.59;;;20.73;38.15
75604;BME280;64187;51.010;13.792;2023-05-29T19:13:45;100635.06;;;20.48;39.49
75604;BME280;64187;51.010;13.792;2023-05-29T19:18:46;100634.66;;;20.40;39.21
75604;BME280;64187;51.010;13.792;2023-05-29T19:23:46;100639.19;;;20.31;39.33
75604;BME280;64187;51.010;13.792;2023-05-29T19:28:45;100645.81;;;19.92;41.19
75604;BME280;64187;51.010;13.792;2023-05-29T19:33:47;100656.13;;;19.63;41.95
75604;BME280;64187;51.010;13.792;2023-05-29T19:38:46;100658.22;;;19.47;42.63
75604;BME280;64187;51.010;13.792;2023-05-29T19:43:44;100665.13;;;18.96;44.78
75604;BME280;64187;51.010;13.792;2023-05-29T19:48:44;100676.81;;;18.72;45.23
75604;BME280;64187;51.010;13.792;2023-05-29T19:53:43;100689.69;;;19.06;43.39
75604;BME280;64187;51.010;13.792;2023-05-29T19:58:42;100689.41;;;18.79;45.38
75604;BME280;64187;51.010;13.792;2023-05-29T20:03:40;100685.91;;;18.34;46.76
75604;BME280;64187;51.010;13.792;2023-05-29T20:08:39;100689.75;;;18.33;46.59
75604;BME280;64187;51.010;13.792;2023-05-29T20:13:38;100696.41;;;18.21;46.83
75604;BME280;64187;51.010;13.792;2023-05-29T20:18:37;100695.09;;;18.08;47.52
75604;BME280;64187;51.010;13.792;2023-05-29T20:23:36;100709.22;;;17.71;49.03
75604;BME280;64187;51.010;13.792;2023-05-29T20:28:35;100702.75;;;17.57;50.70
75604;BME280;64187;51.010;13.792;2023-05-29T20:33:34;100705.34;;;17.93;49.29
75604;BME280;64187;51.010;13.792;2023-05-29T20:38:34;100705.25;;;17.38;50.55
75604;BME280;64187;51.010;13.792;2023-05-29T20:43:35;100710.25;;;17.15;51.97
75604;BME280;64187;51.010;13.792;2023-05-29T20:48:37;100720.69;;;16.88;53.29
75604;BME280;64187;51.010;13.792;2023-05-29T20:53:36;100710.28;;;16.74;53.66
75604;BME280;64187;51.010;13.792;2023-05-29T20:58:35;100722.53;;;16.67;54.57
75604;BME280;64187;51.010;13.792;2023-05-29T21:03:35;100723.09;;;16.74;55.22
75604;BME280;64187;51.010;13.792;2023-05-29T21:08:37;100725.31;;;16.77;53.94
75604;BME280;64187;51.010;13.792;2023-05-29T21:13:37;100721.47;;;16.47;55.79
75604;BME280;64187;51.010;13.792;2023-05-29T21:18:41;100719.25;;;16.39;55.84
75604;BME280;64187;51.010;13.792;2023-05-29T21:23:41;100726.34;;;16.25;55.65
75604;BME280;64187;51.010;13.792;2023-05-29T21:28:41;100726.66;;;16.59;55.23
75604;BME280;64187;51.010;13.792;2023-05-29T21:33:41;100721.41;;;16.27;56.13
75604;BME280;64187;51.010;13.792;2023-05-29T21:38:40;100727.44;;;16.29;56.15
75604;BME280;64187;51.010;13.792;2023-05-29T21:43:40;100725.25;;;16.26;56.34
75604;BME280;64187;51.010;13.792;2023-05-29T21:48:40;100726.94;;;16.52;52.28
75604;BME280;64187;51.010;13.792;2023-05-29T21:53:39;100727.50;;;16.60;54.20
75604;BME280;64187;51.010;13.792;2023-05-29T21:58:38;100736.50;;;16.65;54.05
75604;BME280;64187;51.010;13.792;2023-05-29T22:03:38;100734.03;;;16.69;52.31
75604;BME280;64187;51.010;13.792;2023-05-29T22:08:44;100735.44;;;16.82;49.95
75604;BME280;64187;51.010;13.792;2023-05-29T22:13:44;100736.81;;;16.94;51.64
75604;BME280;64187;51.010;13.792;2023-05-29T22:18:44;100749.91;;;17.18;47.19
75604;BME280;64187;51.010;13.792;2023-05-29T22:24:02;100754.81;;;17.21;47.32
75604;BME280;64187;51.010;13.792;2023-05-29T22:29:03;100748.25;;;17.27;45.89
75604;BME280;64187;51.010;13.792;2023-05-29T22:34:02;100756.47;;;17.17;47.20
75604;BME280;64187;51.010;13.792;2023-05-29T22:39:01;100752.91;;;17.16;47.31
75604;BME280;64187;51.010;13.792;2023-05-29T22:44:00;100753.47;;;16.98;47.25
75604;BME280;64187;51.010;13.792;2023-05-29T22:48:59;100756.75;;;17.10;46.87
75604;BME280;64187;51.010;13.792;2023-05-29T22:53:58;100757.31;;;16.87;48.03
75604;BME280;64187;51.010;13.792;2023-05-29T22:58:58;100765.78;;;16.90;47.05
75604;BME280;64187;51.010;13.792;2023-05-29T23:03:57;100754.53;;;16.66;47.55
75604;BME280;64187;51.010;13.792;2023-05-29T23:08:56;100757.81;;;16.48;49.49
75604;BME280;64187;51.010;13.792;2023-05-29T23:13:55;100759.97;;;16.46;48.96
75604;BME280;64187;51.010;13.792;2023-05-29T23:18:54;100759.09;;;16.20;50.08
75604;BME280;64187;51.010;13.792;2023-05-29T23:23:53;100761.81;;;16.09;50.17
75604;BME280;64187;51.010;13.792;2023-05-29T23:28:52;100762.88;;;15.98;50.87
75604;BME280;64187;51.010;13.792;2023-05-29T23:33:55;100772.66;;;15.89;51.65
75604;BME280;64187;51.010;13.792;2023-05-29T23:38:54;100772.06;;;15.77;51.70
75604;BME280;64187;51.010;13.792;2023-05-29T23:43:53;100775.41;;;15.46;52.84
75604;BME280;64187;51.010;13.792;2023-05-29T23:48:52;100778.06;;;15.79;51.77
75604;BME280;64187;51.010;13.792;2023-05-29T23:53:51;100775.88;;;15.76;52.38
75604;BME280;64187;51.010;13.792;2023-05-29T23:58:50;100771.78;;;15.31;53.62
